M I D A S
Marine Information and Data Acquisition System
Tripno 1818 of the Zeeleeuw from 2009-09-29 06:51:08 to 2009-09-29 16:20:53
Back to CruiseResearch ActivitiesStationsMapUnderway DataData graphs

EquipmentUnitsComment
TimeDGPSUTC
LatitudeDGPSDM.mWGS84
LongitudeDGPSDM.mWGS84
HeadingGyrodeg 
SOGDGPSknotsSpeed over ground
COGDGPSdegCourse over ground
DepthEcho soundermeters200 kHz
Missing or incorrect values are displayed as -999
Navigation data collected by the RV Zeeleeuw from 2009-09-29 07:01:30 to 2009-09-29 16:25:40
                                                                                    Next 1000 lines
Time Latitude Longitude Heading SOG COG Depth
2009-09-29 07:01:40 51°13.662 2°55.957 112.9 0.4 275 9.1
2009-09-29 07:01:44 51°13.662 2°55.956 112.6 0.6 287 9.1
2009-09-29 07:01:50 51°13.662 2°55.954 112.6 0.9 286 9.2
2009-09-29 07:01:55 51°13.663 2°55.951 112.9 1.2 292 9.1
2009-09-29 07:02:00 51°13.664 2°55.948 113.7 1.5 292 9.1
2009-09-29 07:02:04 51°13.665 2°55.945 114.4 1.7 295 5.6
2009-09-29 07:02:10 51°13.666 2°55.941 114.9 1.9 295 -999
2009-09-29 07:02:16 51°13.668 2°55.935 115.5 2.2 296 -999
2009-09-29 07:02:21 51°13.67 2°55.931 115.6 2.3 296 -999
2009-09-29 07:02:27 51°13.671 2°55.925 115.5 2.5 296 -999
2009-09-29 07:02:32 51°13.673 2°55.92 114.9 2.6 296 -999
2009-09-29 07:02:38 51°13.675 2°55.913 114.3 2.7 295 -999
2009-09-29 07:02:43 51°13.676 2°55.908 113.2 2.8 294 -999
2009-09-29 07:02:48 51°13.678 2°55.902 112.3 2.8 293 -999
2009-09-29 07:02:53 51°13.679 2°55.896 111.6 2.9 292 -999
2009-09-29 07:02:58 51°13.681 2°55.89 110.9 3 292 -999
2009-09-29 07:03:03 51°13.682 2°55.884 110.3 3 291 -999
2009-09-29 07:03:08 51°13.684 2°55.877 109.7 3.1 291 -999
2009-09-29 07:03:13 51°13.685 2°55.871 109 3.1 290 -999
2009-09-29 07:03:18 51°13.687 2°55.864 108.3 3.1 289 -999
2009-09-29 07:03:23 51°13.688 2°55.858 107.4 3.1 288 -999
2009-09-29 07:03:28 51°13.689 2°55.851 106.2 3.1 288 -999
2009-09-29 07:03:33 51°13.691 2°55.845 105.1 3 286 -999
2009-09-29 07:03:38 51°13.692 2°55.838 103.9 3 285 -999
2009-09-29 07:03:43 51°13.693 2°55.832 102.7 3 284 -999
2009-09-29 07:03:48 51°13.694 2°55.825 101.4 3.1 283 -999
2009-09-29 07:03:53 51°13.695 2°55.819 100.1 2.9 282 -999
2009-09-29 07:03:58 51°13.696 2°55.813 98.8 2.9 281 -999
2009-09-29 07:04:03 51°13.696 2°55.806 97.8 2.8 280 -999
2009-09-29 07:04:08 51°13.697 2°55.801 96.5 2.7 280 -999
2009-09-29 07:04:13 51°13.697 2°55.795 95.4 2.5 279 -999
2009-09-29 07:04:18 51°13.698 2°55.79 94.6 2.4 278 -999
2009-09-29 07:04:23 51°13.698 2°55.785 94 2.2 277 5.3
2009-09-29 07:04:28 51°13.699 2°55.781 93.1 1.9 279 -999
2009-09-29 07:04:33 51°13.699 2°55.779 92 1.2 280 -999
2009-09-29 07:04:38 51°13.699 2°55.777 89.8 0.7 291 13.9
2009-09-29 07:04:43 51°13.699 2°55.777 87.2 0.3 341 14
2009-09-29 07:04:48 51°13.7 2°55.778 83.7 0.5 35 14
2009-09-29 07:04:52 51°13.701 2°55.779 78.5 0.9 53 14
2009-09-29 07:04:57 51°13.702 2°55.782 73.6 1.3 55 14
2009-09-29 07:05:02 51°13.703 2°55.784 65.6 1.3 51 14
2009-09-29 07:05:07 51°13.704 2°55.786 60 1.2 47 13.7
2009-09-29 07:05:12 51°13.705 2°55.788 54.9 1.1 49 13.6
2009-09-29 07:05:16 51°13.706 2°55.789 51.1 0.8 46 13.7
2009-09-29 07:05:21 51°13.706 2°55.79 49 0.5 49 13.8
2009-09-29 07:05:26 51°13.706 2°55.79 45.6 0.1 65 14
2009-09-29 07:05:31 51°13.706 2°55.79 43.3 0.3 212 13.9
2009-09-29 07:05:36 51°13.705 2°55.789 40.8 0.7 213 13.8
2009-09-29 07:05:41 51°13.704 2°55.788 38.8 0.9 213 13.6
2009-09-29 07:05:46 51°13.703 2°55.786 37.2 1.1 211 13.7
2009-09-29 07:05:51 51°13.701 2°55.785 35.7 1 211 13.9
2009-09-29 07:05:55 51°13.7 2°55.784 35.1 1.1 207 7.5
2009-09-29 07:06:01 51°13.699 2°55.783 34.7 1.1 212 -999
2009-09-29 07:06:07 51°13.697 2°55.782 34.4 0.9 207 -999
2009-09-29 07:06:12 51°13.697 2°55.781 34.6 0.5 210 -999
2009-09-29 07:06:18 51°13.697 2°55.782 34.4 0.2 33 -999
2009-09-29 07:06:23 51°13.698 2°55.782 32.2 0.9 26 -999
2009-09-29 07:06:28 51°13.7 2°55.783 27.5 1.4 22 4.6
2009-09-29 07:06:33 51°13.703 2°55.784 23.2 1.9 16 14.1
2009-09-29 07:06:38 51°13.706 2°55.785 18 2.2 11 4.6
2009-09-29 07:06:43 51°13.708 2°55.786 12.1 2 3 4.9
2009-09-29 07:06:47 51°13.71 2°55.786 6.3 1.8 4 14.1
2009-09-29 07:06:52 51°13.712 2°55.786 0.9 1.3 4 14.2
2009-09-29 07:06:57 51°13.713 2°55.786 357.6 0.9 10 4.8
2009-09-29 07:07:02 51°13.714 2°55.787 354.3 0.3 43 4.8
2009-09-29 07:07:07 51°13.714 2°55.788 350.7 0.5 124 4.9
2009-09-29 07:07:12 51°13.713 2°55.789 347.7 0.7 138 14
2009-09-29 07:07:16 51°13.712 2°55.79 345.2 0.7 143 13.9
2009-09-29 07:07:21 51°13.711 2°55.791 343.6 0.6 134 13.7
2009-09-29 07:07:26 51°13.711 2°55.791 343.1 0.1 72 13.7
2009-09-29 07:07:31 51°13.712 2°55.791 342.7 0.9 359 13.6
2009-09-29 07:07:36 51°13.714 2°55.79 340.6 1.3 339 13.5
2009-09-29 07:07:40 51°13.716 2°55.788 335.1 1.8 332 14.2
2009-09-29 07:07:46 51°13.719 2°55.785 328.7 2.2 328 14.8
2009-09-29 07:07:51 51°13.722 2°55.782 322 2.6 320 14.6
2009-09-29 07:07:55 51°13.725 2°55.778 317.5 3 318 14.4
2009-09-29 07:08:00 51°13.728 2°55.773 314.7 2.9 314 14.3
2009-09-29 07:08:05 51°13.73 2°55.769 312.5 2.8 317 14.1
2009-09-29 07:08:10 51°13.733 2°55.764 310.7 2.7 312 13.7
2009-09-29 07:08:15 51°13.735 2°55.76 309.3 2.9 312 13.4
2009-09-29 07:08:19 51°13.738 2°55.756 308.6 3.1 310 12.9
2009-09-29 07:08:24 51°13.741 2°55.75 308.4 3.3 310 13
2009-09-29 07:08:30 51°13.745 2°55.743 308.9 3.6 309 12.7
2009-09-29 07:08:35 51°13.748 2°55.736 309.3 3.8 310 12.6
2009-09-29 07:08:39 51°13.751 2°55.73 309.8 4 309 12.3
2009-09-29 07:08:44 51°13.754 2°55.723 310.6 4.2 311 12.4
2009-09-29 07:08:49 51°13.758 2°55.716 312 4.3 312 12.4
2009-09-29 07:08:55 51°13.763 2°55.708 313.8 4.4 315 12.5
2009-09-29 07:09:00 51°13.768 2°55.701 316 4.6 317 12.7
2009-09-29 07:09:04 51°13.772 2°55.695 318.8 4.7 319 12.6
2009-09-29 07:09:09 51°13.777 2°55.689 320.7 4.7 322 12.6
2009-09-29 07:09:15 51°13.783 2°55.681 322.9 4.8 323 12.6
2009-09-29 07:09:20 51°13.789 2°55.675 325.2 4.9 325 12.7
2009-09-29 07:09:24 51°13.793 2°55.67 327.5 5 327 12.7
2009-09-29 07:09:29 51°13.799 2°55.664 329.4 5 328 12.7
2009-09-29 07:09:35 51°13.806 2°55.658 330.4 5.1 330 12.6
2009-09-29 07:09:40 51°13.813 2°55.652 331.2 5.2 330 12.7
2009-09-29 07:09:44 51°13.818 2°55.647 332.5 5.2 332 12.7
2009-09-29 07:09:49 51°13.824 2°55.642 333.4 5.3 332 12.5
2009-09-29 07:09:55 51°13.832 2°55.635 334.3 5.3 333 12.6
2009-09-29 07:09:59 51°13.837 2°55.631 334.7 5.3 334 12.9
2009-09-29 07:10:04 51°13.844 2°55.626 334.8 5.4 333 12.3
2009-09-29 07:10:09 51°13.851 2°55.621 334.9 5.4 335 12.5
2009-09-29 07:10:15 51°13.859 2°55.615 335.5 5.5 335 12.9
2009-09-29 07:10:19 51°13.865 2°55.611 335.9 5.5 335 13
2009-09-29 07:10:24 51°13.872 2°55.605 336 5.5 335 13
2009-09-29 07:10:29 51°13.878 2°55.6 335.9 5.5 335 12.9
2009-09-29 07:10:35 51°13.887 2°55.593 335.7 5.5 335 12.8
2009-09-29 07:10:40 51°13.893 2°55.588 335.7 5.6 335 12.8
2009-09-29 07:10:44 51°13.899 2°55.584 335.8 5.6 335 12.7
2009-09-29 07:10:50 51°13.907 2°55.578 336 5.6 335 12.9
2009-09-29 07:10:55 51°13.914 2°55.572 336 5.6 334 12.7
2009-09-29 07:11:00 51°13.921 2°55.567 336 5.6 335 12.9
2009-09-29 07:11:04 51°13.927 2°55.563 335.9 5.6 335 13
2009-09-29 07:11:09 51°13.934 2°55.557 335.9 5.7 335 12.8
2009-09-29 07:11:15 51°13.942 2°55.551 336 5.6 335 12.9
2009-09-29 07:11:20 51°13.95 2°55.546 336.1 5.7 335 12.7
2009-09-29 07:11:24 51°13.955 2°55.541 335.8 5.7 334 12.7
2009-09-29 07:11:29 51°13.962 2°55.536 335.5 5.7 335 12.8
2009-09-29 07:11:35 51°13.972 2°55.53 335.6 5.7 335 12.8
2009-09-29 07:11:40 51°13.979 2°55.525 336.1 5.7 336 12.9
2009-09-29 07:11:44 51°13.985 2°55.521 336.6 5.7 335 12.9
2009-09-29 07:11:49 51°13.992 2°55.516 336.8 5.7 336 12.8
2009-09-29 07:11:55 51°14.001 2°55.51 336.6 5.7 334 12.6
2009-09-29 07:11:59 51°14.007 2°55.505 336.1 5.7 335 12.7
2009-09-29 07:12:04 51°14.014 2°55.5 335.9 5.7 335 12.6
2009-09-29 07:12:09 51°14.021 2°55.495 336.1 5.7 337 12.7
2009-09-29 07:12:14 51°14.029 2°55.49 336.9 5.7 336 12.6
2009-09-29 07:12:19 51°14.036 2°55.485 337.3 5.7 337 12.5
2009-09-29 07:12:25 51°14.045 2°55.479 337.3 5.7 336 12.6
2009-09-29 07:12:30 51°14.052 2°55.474 336.6 5.7 335 12.5
2009-09-29 07:12:35 51°14.059 2°55.468 335.8 5.7 335 12.3
2009-09-29 07:12:40 51°14.066 2°55.463 335.4 5.7 334 12.5
2009-09-29 07:12:44 51°14.072 2°55.458 335.2 5.7 335 12.5
2009-09-29 07:12:50 51°14.08 2°55.452 335.3 5.6 334 12.4
2009-09-29 07:12:54 51°14.085 2°55.447 335 5.6 333 12.6
2009-09-29 07:13:00 51°14.094 2°55.44 335 5.6 334 12.7
2009-09-29 07:13:05 51°14.101 2°55.435 335 5.6 334 12.3
2009-09-29 07:13:10 51°14.108 2°55.43 335 5.6 333 12.7
2009-09-29 07:13:14 51°14.113 2°55.425 334.7 5.6 333 12.4
2009-09-29 07:13:20 51°14.121 2°55.418 333.9 5.6 331 12.5
2009-09-29 07:13:24 51°14.127 2°55.414 332.5 5.6 331 12.3
2009-09-29 07:13:29 51°14.134 2°55.407 331.2 5.6 330 12.6
2009-09-29 07:13:35 51°14.142 2°55.4 330.5 5.7 330 12.2
2009-09-29 07:13:40 51°14.149 2°55.394 330.3 5.9 329 12.6
2009-09-29 07:13:44 51°14.155 2°55.388 330.2 6.2 329 12.7
2009-09-29 07:13:49 51°14.163 2°55.38 329.6 6.4 328 12.6
2009-09-29 07:13:54 51°14.17 2°55.372 328.3 6.6 326 12.5
2009-09-29 07:14:00 51°14.179 2°55.361 326.7 6.8 325 12.6
2009-09-29 07:14:05 51°14.186 2°55.352 325.2 6.8 323 12.7
2009-09-29 07:14:09 51°14.192 2°55.344 324.1 7 323 12.7
2009-09-29 07:14:14 51°14.2 2°55.335 323.5 7.1 321 12.6
2009-09-29 07:14:20 51°14.209 2°55.323 322.4 7.1 320 12.5
2009-09-29 07:14:25 51°14.217 2°55.312 321.1 7.2 319 12.6
2009-09-29 07:14:29 51°14.223 2°55.304 319.9 7.2 318 12.7
2009-09-29 07:14:34 51°14.23 2°55.293 318.8 7.3 317 12.8
2009-09-29 07:14:40 51°14.239 2°55.279 317.6 7.3 316 12.7
2009-09-29 07:14:45 51°14.246 2°55.267 316.6 7.4 315 12.7
2009-09-29 07:14:50 51°14.253 2°55.256 316.3 7.4 315 12.8
2009-09-29 07:14:54 51°14.259 2°55.246 315.7 7.4 314 12.9
2009-09-29 07:15:00 51°14.267 2°55.232 315.1 7.4 313 12.7
2009-09-29 07:15:04 51°14.273 2°55.222 314.9 7.5 313 12.7
2009-09-29 07:15:09 51°14.28 2°55.21 314.4 7.5 312 12.6
2009-09-29 07:15:15 51°14.289 2°55.195 313.9 7.5 312 12.7
2009-09-29 07:15:20 51°14.296 2°55.183 313.7 7.5 313 12.5
2009-09-29 07:15:24 51°14.301 2°55.172 313.4 7.7 311 12.4
2009-09-29 07:15:30 51°14.31 2°55.157 313.6 7.8 312 12.1
2009-09-29 07:15:34 51°14.316 2°55.146 314 7.9 312 12.5
2009-09-29 07:15:40 51°14.325 2°55.131 313.7 8 313 12.7
2009-09-29 07:15:45 51°14.333 2°55.118 313.3 8.1 312 12.7
2009-09-29 07:15:49 51°14.339 2°55.107 313.3 8.1 313 12.8
2009-09-29 07:15:54 51°14.347 2°55.094 313.8 8.2 314 12.7
2009-09-29 07:16:00 51°14.356 2°55.078 314.1 8.3 314 12.3
2009-09-29 07:16:04 51°14.363 2°55.068 314.9 8.4 317 12.3
2009-09-29 07:16:09 51°14.372 2°55.056 317.1 8.4 321 12
2009-09-29 07:16:14 51°14.382 2°55.046 320.5 8.4 326 12
2009-09-29 07:16:20 51°14.394 2°55.034 324.4 8.5 328 11.9
2009-09-29 07:16:25 51°14.404 2°55.025 326.5 8.6 330 11.5
2009-09-29 07:16:29 51°14.413 2°55.018 327.4 8.6 330 11.8
2009-09-29 07:16:34 51°14.423 2°55.008 328.2 8.6 331 11.7
2009-09-29 07:16:40 51°14.436 2°54.997 328.8 8.8 331 11.8
2009-09-29 07:16:45 51°14.447 2°54.988 329.3 8.8 332 11.6
2009-09-29 07:16:49 51°14.455 2°54.98 329.9 8.9 332 11.7
2009-09-29 07:16:54 51°14.466 2°54.971 330.1 9 332 11.8
2009-09-29 07:17:00 51°14.479 2°54.959 330 9.1 331 11.9
2009-09-29 07:17:05 51°14.49 2°54.949 329.2 9.2 330 11.8
2009-09-29 07:17:09 51°14.499 2°54.941 329.1 9.2 331 11.8
2009-09-29 07:17:15 51°14.513 2°54.929 329 9.3 331 11.6
2009-09-29 07:17:20 51°14.525 2°54.919 329.3 9.4 331 11.6
2009-09-29 07:17:24 51°14.534 2°54.912 329.9 9.6 331 11.7
2009-09-29 07:17:30 51°14.548 2°54.899 330.1 9.7 331 11.4
2009-09-29 07:17:34 51°14.558 2°54.891 330.1 9.7 331 11.2
2009-09-29 07:17:40 51°14.571 2°54.878 329.6 9.8 331 11.3
2009-09-29 07:17:44 51°14.581 2°54.869 329.5 9.9 330 11.6
2009-09-29 07:17:49 51°14.593 2°54.858 329.6 10 331 11.3
2009-09-29 07:17:55 51°14.607 2°54.845 329.9 10 331 11.4
2009-09-29 07:18:00 51°14.62 2°54.835 330.3 10 331 11.4
2009-09-29 07:18:04 51°14.63 2°54.826 330.2 10.1 330 11.1
2009-09-29 07:18:09 51°14.642 2°54.814 329.6 10.3 330 11.1
2009-09-29 07:18:14 51°14.654 2°54.803 329.9 10.3 331 11.1
2009-09-29 07:18:20 51°14.67 2°54.79 330.9 10.4 332 11.4
2009-09-29 07:18:24 51°14.68 2°54.782 331.1 10.5 331 11.4
2009-09-29 07:18:29 51°14.693 2°54.77 330.8 10.5 331 11.2
2009-09-29 07:18:34 51°14.705 2°54.759 331.1 10.5 332 11.4
2009-09-29 07:18:40 51°14.721 2°54.746 331.2 10.7 332 11.2
2009-09-29 07:18:45 51°14.734 2°54.735 331.1 10.7 332 11.2
2009-09-29 07:18:49 51°14.744 2°54.726 331.4 10.7 332 11.2
2009-09-29 07:18:54 51°14.757 2°54.715 331.4 10.8 332 11.2
2009-09-29 07:19:00 51°14.773 2°54.702 331.1 10.8 332 11.2
2009-09-29 07:19:05 51°14.787 2°54.691 331.1 10.8 332 11.2
2009-09-29 07:19:09 51°14.798 2°54.682 331.1 10.8 332 11.1
2009-09-29 07:19:14 51°14.811 2°54.671 331.1 10.9 331 11.4
2009-09-29 07:19:20 51°14.827 2°54.657 330.9 10.9 332 11.2
2009-09-29 07:19:24 51°14.837 2°54.647 330.9 10.9 332 11.3
2009-09-29 07:19:29 51°14.85 2°54.636 330.7 10.9 331 11.3
2009-09-29 07:19:34 51°14.864 2°54.624 330.8 10.9 332 11.3
2009-09-29 07:19:40 51°14.879 2°54.611 331.1 10.7 332 11
2009-09-29 07:19:44 51°14.89 2°54.601 330.6 10.7 331 11.2
2009-09-29 07:19:50 51°14.905 2°54.587 330.5 10.7 331 11.4
2009-09-29 07:19:54 51°14.916 2°54.578 330.6 10.7 331 11.5
2009-09-29 07:20:00 51°14.931 2°54.564 330.8 10.7 331 11.5
2009-09-29 07:20:04 51°14.942 2°54.555 330.6 10.8 331 11.6
2009-09-29 07:20:09 51°14.955 2°54.543 330.6 10.8 331 11.5
2009-09-29 07:20:15 51°14.97 2°54.528 330.4 10.8 331 11.8
2009-09-29 07:20:20 51°14.983 2°54.515 329.6 10.8 329 11.8
2009-09-29 07:20:24 51°14.994 2°54.506 329.6 10.8 330 11.8
2009-09-29 07:20:29 51°15.007 2°54.495 330.2 10.9 331 12.2
2009-09-29 07:20:35 51°15.023 2°54.481 330.3 10.9 330 12
2009-09-29 07:20:40 51°15.036 2°54.469 330.3 11 331 12.1
2009-09-29 07:20:45 51°15.049 2°54.458 330.5 10.9 331 11.7
2009-09-29 07:20:49 51°15.06 2°54.448 330.9 10.8 331 11.5
2009-09-29 07:20:54 51°15.073 2°54.436 331 10.8 332 11.5
2009-09-29 07:21:00 51°15.088 2°54.422 330.8 10.8 331 11.6
2009-09-29 07:21:05 51°15.102 2°54.41 330.3 10.9 330 11.5
2009-09-29 07:21:09 51°15.112 2°54.401 330.2 10.9 330 11.2
2009-09-29 07:21:14 51°15.126 2°54.389 330 10.9 331 10.8
2009-09-29 07:21:20 51°15.141 2°54.376 330.3 10.9 331 10.6
2009-09-29 07:21:25 51°15.155 2°54.364 330.7 10.9 331 10.7
2009-09-29 07:21:29 51°15.165 2°54.354 330.9 10.9 332 11
2009-09-29 07:21:34 51°15.178 2°54.343 330.9 10.9 331 10.5
2009-09-29 07:21:40 51°15.194 2°54.329 330.6 10.8 332 10.5
2009-09-29 07:21:44 51°15.205 2°54.32 330.5 10.9 331 10.7
2009-09-29 07:21:49 51°15.218 2°54.309 329.6 10.8 330 10.8
2009-09-29 07:21:55 51°15.234 2°54.295 329.6 10.8 330 10.9
2009-09-29 07:22:00 51°15.247 2°54.283 329.6 10.8 331 10.7
2009-09-29 07:22:05 51°15.26 2°54.271 329.9 10.8 331 10.9
2009-09-29 07:22:09 51°15.27 2°54.262 330.4 10.8 331 10.4
2009-09-29 07:22:14 51°15.283 2°54.25 329.8 10.7 329 10.9
2009-09-29 07:22:20 51°15.299 2°54.236 329.3 10.8 330 11
2009-09-29 07:22:25 51°15.312 2°54.224 329 10.7 329 11.1
2009-09-29 07:22:29 51°15.322 2°54.214 328.9 10.8 330 11.1
2009-09-29 07:22:34 51°15.335 2°54.202 329.3 10.7 330 10.8
2009-09-29 07:22:40 51°15.35 2°54.189 330.1 10.7 331 11.1
2009-09-29 07:22:44 51°15.361 2°54.179 330.3 10.7 330 10.8
2009-09-29 07:22:49 51°15.374 2°54.168 330.6 10.7 331 11.1
2009-09-29 07:22:54 51°15.387 2°54.156 330.7 10.8 330 11.3
2009-09-29 07:23:00 51°15.402 2°54.143 330.6 10.7 332 11.3
2009-09-29 07:23:05 51°15.415 2°54.131 330.8 10.7 330 11.4
2009-09-29 07:23:09 51°15.426 2°54.122 330.7 10.6 331 11.3
2009-09-29 07:23:14 51°15.438 2°54.11 330.3 10.6 330 11.4
2009-09-29 07:23:20 51°15.454 2°54.096 330.7 10.7 331 11.7
2009-09-29 07:23:25 51°15.467 2°54.085 331 10.8 331 11.3
2009-09-29 07:23:29 51°15.477 2°54.075 330.8 10.8 331 11.2
2009-09-29 07:23:34 51°15.49 2°54.064 330.7 10.7 331 11.7
2009-09-29 07:23:40 51°15.506 2°54.05 330.8 10.8 331 11.6
2009-09-29 07:23:45 51°15.519 2°54.038 330.6 10.7 331 11.6
2009-09-29 07:23:49 51°15.53 2°54.029 330.7 10.7 330 12
2009-09-29 07:23:54 51°15.543 2°54.018 330.8 10.8 331 11.7
2009-09-29 07:24:00 51°15.558 2°54.003 331 10.7 330 11.6
2009-09-29 07:24:04 51°15.568 2°53.994 330.8 10.7 331 11.9
2009-09-29 07:24:09 51°15.581 2°53.982 330.8 10.7 331 12
2009-09-29 07:24:14 51°15.594 2°53.971 330.9 10.7 332 12
2009-09-29 07:24:20 51°15.61 2°53.957 331.1 10.6 330 12.2
2009-09-29 07:24:24 51°15.62 2°53.948 330.3 10.7 330 12.4
2009-09-29 07:24:29 51°15.633 2°53.936 330.6 10.7 331 12.1
2009-09-29 07:24:35 51°15.648 2°53.922 331.1 10.6 330 12.4
2009-09-29 07:24:40 51°15.661 2°53.911 330.5 10.7 330 11.8
2009-09-29 07:24:44 51°15.671 2°53.901 330.2 10.7 330 11.7
2009-09-29 07:24:49 51°15.684 2°53.89 330.7 10.7 330 12.5
2009-09-29 07:24:54 51°15.697 2°53.878 330.3 10.7 330 12.4
2009-09-29 07:25:00 51°15.713 2°53.864 330.2 10.7 330 12.6
2009-09-29 07:25:05 51°15.726 2°53.852 330.5 10.8 331 12.3
2009-09-29 07:25:09 51°15.736 2°53.843 330.8 10.6 331 12.5
2009-09-29 07:25:14 51°15.749 2°53.831 330.6 10.7 331 12.8
2009-09-29 07:25:20 51°15.764 2°53.817 330.5 10.6 331 12.5
2009-09-29 07:25:24 51°15.775 2°53.808 330.5 10.7 331 12.6
2009-09-29 07:25:29 51°15.788 2°53.797 330.8 10.7 331 12.8
2009-09-29 07:25:34 51°15.801 2°53.785 330.7 10.8 331 12.8
2009-09-29 07:25:40 51°15.816 2°53.772 331.1 10.7 332 13
2009-09-29 07:25:45 51°15.829 2°53.76 331.1 10.8 330 12.7
2009-09-29 07:25:49 51°15.839 2°53.751 330.5 10.7 330 12.9
2009-09-29 07:25:54 51°15.852 2°53.739 330.1 10.8 330 13
2009-09-29 07:26:00 51°15.868 2°53.724 330.3 10.8 330 12.9
2009-09-29 07:26:05 51°15.881 2°53.712 330.4 10.8 329 12.9
2009-09-29 07:26:09 51°15.891 2°53.703 330.1 10.8 330 12.9
2009-09-29 07:26:14 51°15.904 2°53.69 330.1 10.7 330 12.7
2009-09-29 07:26:20 51°15.919 2°53.676 330.3 10.7 331 13
2009-09-29 07:26:24 51°15.93 2°53.667 330.7 10.7 330 12.9
2009-09-29 07:26:29 51°15.943 2°53.655 330.4 10.7 330 13.1
2009-09-29 07:26:35 51°15.958 2°53.641 330.6 10.6 330 13.4
2009-09-29 07:26:40 51°15.971 2°53.629 330.7 10.7 330 13.4
2009-09-29 07:26:44 51°15.981 2°53.62 330.8 10.7 330 12.8
2009-09-29 07:26:49 51°15.994 2°53.608 330.5 10.7 330 13.1
2009-09-29 07:26:54 51°16.007 2°53.596 329.6 10.7 330 12.9
2009-09-29 07:27:00 51°16.022 2°53.582 329.3 10.6 329 13.6
2009-09-29 07:27:05 51°16.035 2°53.571 329.7 10.6 330 13
2009-09-29 07:27:09 51°16.045 2°53.562 329.7 10.5 330 13.2
2009-09-29 07:27:15 51°16.06 2°53.548 329.4 10.5 330 13.2
2009-09-29 07:27:20 51°16.073 2°53.537 330 10.6 331 13.4
2009-09-29 07:27:25 51°16.086 2°53.525 330.8 10.6 331 13.2
2009-09-29 07:27:29 51°16.096 2°53.516 330.3 10.7 330 13.5
2009-09-29 07:27:34 51°16.109 2°53.504 329.9 10.6 330 12.9
2009-09-29 07:27:40 51°16.124 2°53.49 329.6 10.5 330 13.3
2009-09-29 07:27:44 51°16.134 2°53.481 329.9 10.6 330 13.4
2009-09-29 07:27:50 51°16.149 2°53.467 329.6 10.6 329 13.3
2009-09-29 07:27:54 51°16.159 2°53.457 329.3 10.7 329 13.4
2009-09-29 07:28:00 51°16.175 2°53.443 329.5 10.7 330 13.2
2009-09-29 07:28:05 51°16.188 2°53.432 329.9 10.7 330 13.4
2009-09-29 07:28:09 51°16.198 2°53.422 330.2 10.8 331 13.5
2009-09-29 07:28:14 51°16.211 2°53.409 330.3 10.8 330 13.2
2009-09-29 07:28:20 51°16.227 2°53.395 330.5 10.9 331 13.2
2009-09-29 07:28:25 51°16.24 2°53.384 330.8 10.7 332 13.2
2009-09-29 07:28:29 51°16.25 2°53.375 330.4 10.8 330 13.4
2009-09-29 07:28:34 51°16.263 2°53.363 330.3 10.8 331 13.2
2009-09-29 07:28:40 51°16.279 2°53.349 330.4 10.8 331 13.6
2009-09-29 07:28:44 51°16.289 2°53.34 330.3 10.8 331 13.3
2009-09-29 07:28:50 51°16.305 2°53.326 330.6 10.8 331 13.5
2009-09-29 07:28:54 51°16.315 2°53.317 330.4 10.7 331 13.4
2009-09-29 07:29:00 51°16.331 2°53.303 330.3 10.8 331 13.5
2009-09-29 07:29:04 51°16.342 2°53.294 330.3 10.8 330 13.5
2009-09-29 07:29:09 51°16.355 2°53.282 330 10.8 331 13.4
2009-09-29 07:29:15 51°16.371 2°53.268 330.3 10.8 332 13.7
2009-09-29 07:29:20 51°16.384 2°53.256 330.6 10.8 331 13.4
2009-09-29 07:29:24 51°16.395 2°53.248 331.8 10.8 334 13.5
2009-09-29 07:29:29 51°16.408 2°53.238 332.3 10.8 332 13.5
2009-09-29 07:29:35 51°16.424 2°53.225 332.7 10.8 335 13.3
2009-09-29 07:29:40 51°16.437 2°53.214 333.6 10.8 334 13.5
2009-09-29 07:29:45 51°16.451 2°53.204 333.2 10.8 333 13.7
2009-09-29 07:29:49 51°16.462 2°53.196 333.9 10.7 336 12.7
2009-09-29 07:29:54 51°16.475 2°53.187 334.7 10.6 336 13.3
2009-09-29 07:30:00 51°16.491 2°53.175 335.5 10.7 336 13.4
2009-09-29 07:30:05 51°16.505 2°53.165 335 10.8 335 13.2
2009-09-29 07:30:09 51°16.516 2°53.158 334.9 10.7 336 13.2
2009-09-29 07:30:14 51°16.529 2°53.148 335.4 10.7 336 12.9
2009-09-29 07:30:20 51°16.545 2°53.137 335.6 10.5 337 13.7
2009-09-29 07:30:25 51°16.559 2°53.128 335.8 10.5 336 13.1
2009-09-29 07:30:29 51°16.569 2°53.121 335.5 10.5 336 13.1
2009-09-29 07:30:34 51°16.583 2°53.112 336 10.6 336 13
2009-09-29 07:30:40 51°16.599 2°53.1 335.7 10.5 336 12.9
2009-09-29 07:30:44 51°16.609 2°53.092 335.1 10.5 335 13.1
2009-09-29 07:30:49 51°16.623 2°53.083 335.2 10.6 336 13.4
2009-09-29 07:30:55 51°16.639 2°53.072 335.8 10.6 336 13.4
2009-09-29 07:31:00 51°16.653 2°53.063 336.1 10.7 336 12.9
2009-09-29 07:31:05 51°16.666 2°53.052 335.2 10.5 334 13
2009-09-29 07:31:10 51°16.679 2°53.042 334.9 10.6 335 12.6
2009-09-29 07:31:14 51°16.69 2°53.035 334.7 10.5 336 12.8
2009-09-29 07:31:20 51°16.706 2°53.023 335.3 10.6 336 12.7
2009-09-29 07:31:25 51°16.719 2°53.014 335.4 10.7 336 12.6
2009-09-29 07:31:30 51°16.732 2°53.004 335.5 10.5 336 12.6
2009-09-29 07:31:34 51°16.743 2°52.997 336.1 10.6 336 12.2
2009-09-29 07:31:40 51°16.759 2°52.984 334.5 10.5 333 12.6
2009-09-29 07:31:44 51°16.769 2°52.976 334 10.6 335 12.1
2009-09-29 07:31:49 51°16.782 2°52.965 333.9 10.5 333 11.8
2009-09-29 07:31:55 51°16.798 2°52.953 333.3 10.6 333 11.6
2009-09-29 07:32:00 51°16.811 2°52.942 333 10.6 333 11.1
2009-09-29 07:32:05 51°16.824 2°52.931 332.8 10.6 332 11
2009-09-29 07:32:09 51°16.834 2°52.922 332 10.6 332 10.7
2009-09-29 07:32:14 51°16.847 2°52.911 331.8 10.6 332 10.7
2009-09-29 07:32:20 51°16.863 2°52.898 331.8 10.6 331 10.3
2009-09-29 07:32:25 51°16.876 2°52.887 331.5 10.5 332 10.7
2009-09-29 07:32:29 51°16.886 2°52.878 331.4 10.6 330 10.6
2009-09-29 07:32:34 51°16.899 2°52.866 331 10.5 331 10.8
2009-09-29 07:32:40 51°16.914 2°52.853 330.9 10.5 332 10.9
2009-09-29 07:32:45 51°16.927 2°52.841 331.1 10.5 332 10.9
2009-09-29 07:32:49 51°16.937 2°52.832 331.3 10.5 331 10.8
2009-09-29 07:32:54 51°16.95 2°52.82 330.7 10.6 330 11.2
2009-09-29 07:33:00 51°16.965 2°52.806 330.8 10.7 331 11.1
2009-09-29 07:33:05 51°16.978 2°52.794 329.7 10.6 328 11
2009-09-29 07:33:09 51°16.988 2°52.784 329.3 10.6 329 11.6
2009-09-29 07:33:15 51°17.003 2°52.769 328.9 10.6 328 11.3
2009-09-29 07:33:20 51°17.015 2°52.757 328.2 10.6 328 11.3
2009-09-29 07:33:24 51°17.025 2°52.746 327.9 10.6 328 11.2
2009-09-29 07:33:30 51°17.04 2°52.731 327.3 10.6 327 11.8
2009-09-29 07:33:35 51°17.053 2°52.719 327.4 10.7 328 11.7
2009-09-29 07:33:40 51°17.065 2°52.706 327.2 10.6 326 11.3
2009-09-29 07:33:44 51°17.075 2°52.695 326.3 10.7 327 11.5
2009-09-29 07:33:49 51°17.087 2°52.682 326.4 10.5 327 11.2
2009-09-29 07:33:54 51°17.099 2°52.669 326.7 10.5 327 11.2
2009-09-29 07:34:00 51°17.114 2°52.653 327.1 10.6 327 11.5
2009-09-29 07:34:05 51°17.126 2°52.64 326.7 10.6 327 11
2009-09-29 07:34:09 51°17.136 2°52.63 326.1 10.4 327 11.2
2009-09-29 07:34:14 51°17.148 2°52.618 325.9 10.3 327 11.3
2009-09-29 07:34:20 51°17.163 2°52.605 329.4 10.4 333 12
2009-09-29 07:34:25 51°17.176 2°52.596 332.8 10.3 334 11.2
2009-09-29 07:34:29 51°17.187 2°52.59 336.8 10.4 341 11.4
2009-09-29 07:34:34 51°17.2 2°52.582 338.4 10.4 339 11.3
2009-09-29 07:34:39 51°17.214 2°52.575 341 10.5 344 11.8
2009-09-29 07:34:45 51°17.231 2°52.567 342.3 10.6 342 11.8
2009-09-29 07:34:49 51°17.243 2°52.562 344 10.6 346 11.5
2009-09-29 07:34:54 51°17.256 2°52.556 344.5 10.6 345 11.9
2009-09-29 07:35:00 51°17.274 2°52.55 345.9 10.7 348 11.4
2009-09-29 07:35:05 51°17.288 2°52.544 346.3 10.7 346 11.6
2009-09-29 07:35:09 51°17.3 2°52.541 346.9 10.6 349 11.9
2009-09-29 07:35:14 51°17.315 2°52.537 348.5 10.7 352 11.5
2009-09-29 07:35:20 51°17.331 2°52.532 348.5 10.5 349 11.6
2009-09-29 07:35:24 51°17.343 2°52.53 351.7 10.6 355 11.9
2009-09-29 07:35:29 51°17.358 2°52.528 353.2 10.6 353 12.2
2009-09-29 07:35:35 51°17.376 2°52.526 354.1 10.6 356 11.6
2009-09-29 07:35:40 51°17.391 2°52.525 356.1 10.7 358 12.1
2009-09-29 07:35:44 51°17.403 2°52.525 357.4 10.7 359 11.6
2009-09-29 07:35:49 51°17.418 2°52.525 358.3 10.7 359 12.2
2009-09-29 07:35:54 51°17.433 2°52.526 359 10.8 1 12.1
2009-09-29 07:36:00 51°17.45 2°52.526 359.8 10.8 1 11.4
2009-09-29 07:36:05 51°17.465 2°52.527 -999 10.3 2 11.6
2009-09-29 07:36:09 51°17.476 2°52.529 1.5 10.5 3 12.2
2009-09-29 07:36:15 51°17.494 2°52.529 1.4 10.5 1 12.1
2009-09-29 07:36:20 51°17.509 2°52.53 1 10.6 2 11.8
2009-09-29 07:36:25 51°17.524 2°52.53 1.5 10.7 2 11.4
2009-09-29 07:36:29 51°17.536 2°52.532 2.2 10.7 3 11.6
2009-09-29 07:36:34 51°17.55 2°52.533 2.6 10.8 3 12.2
2009-09-29 07:36:40 51°17.568 2°52.535 2.4 10.8 3 11.8
2009-09-29 07:36:44 51°17.58 2°52.536 2.5 10.8 3 12.2
2009-09-29 07:36:50 51°17.599 2°52.537 2.8 10.9 4 12.1
2009-09-29 07:36:54 51°17.611 2°52.538 2.7 10.9 2 12.1
2009-09-29 07:37:00 51°17.629 2°52.539 2.6 10.9 2 11.9
2009-09-29 07:37:05 51°17.644 2°52.54 2.3 10.9 3 12.1
2009-09-29 07:37:09 51°17.656 2°52.541 2.3 10.9 3 11.6
2009-09-29 07:37:14 51°17.671 2°52.542 2.6 10.7 3 12.2
2009-09-29 07:37:20 51°17.689 2°52.544 2.7 10.8 3 12
2009-09-29 07:37:25 51°17.704 2°52.545 2.1 10.8 1 12
2009-09-29 07:37:29 51°17.716 2°52.546 1.7 10.7 3 12.3
2009-09-29 07:37:35 51°17.734 2°52.546 1.5 10.8 1 12.1
2009-09-29 07:37:40 51°17.749 2°52.547 1.5 10.8 2 11.8
2009-09-29 07:37:44 51°17.761 2°52.548 1.1 10.8 1 12
2009-09-29 07:37:50 51°17.779 2°52.549 1.5 10.9 2 11.9
2009-09-29 07:37:54 51°17.792 2°52.549 1.3 11 1 11.7
2009-09-29 07:38:00 51°17.809 2°52.55 1.3 10.9 2 11.9
2009-09-29 07:38:04 51°17.822 2°52.551 1.5 10.9 2 11.9
2009-09-29 07:38:09 51°17.837 2°52.551 1.5 11 1 12.1
2009-09-29 07:38:15 51°17.855 2°52.552 1 10.9 1 11.9
2009-09-29 07:38:20 51°17.87 2°52.553 1 10.8 2 12.5
2009-09-29 07:38:24 51°17.882 2°52.553 1.5 10.9 2 11.9
2009-09-29 07:38:29 51°17.897 2°52.554 1.3 10.7 -999 11.6
2009-09-29 07:38:35 51°17.915 2°52.555 0.7 10.6 2 12.3
2009-09-29 07:38:40 51°17.93 2°52.555 1.1 10.7 1 12.5
2009-09-29 07:38:45 51°17.944 2°52.556 0.7 10.7 1 11.8
2009-09-29 07:38:49 51°17.956 2°52.557 0.6 10.5 2 12.2
2009-09-29 07:38:54 51°17.971 2°52.557 1.2 10.6 2 12.3
2009-09-29 07:39:00 51°17.989 2°52.557 1 10.7 -999 12.1
2009-09-29 07:39:05 51°18.004 2°52.558 0.7 10.8 1 12.2
2009-09-29 07:39:09 51°18.016 2°52.558 0.8 10.9 -999 12.1
2009-09-29 07:39:14 51°18.031 2°52.559 0.7 10.8 2 11.8
2009-09-29 07:39:20 51°18.049 2°52.56 1.3 10.9 1 12.4
2009-09-29 07:39:25 51°18.064 2°52.56 0.9 10.9 -999 12.3
2009-09-29 07:39:29 51°18.076 2°52.561 1 10.8 2 11.9
2009-09-29 07:39:34 51°18.09 2°52.561 0.6 10.6 1 12.4
2009-09-29 07:39:40 51°18.108 2°52.562 1.4 10.7 1 12.4
2009-09-29 07:39:45 51°18.123 2°52.563 0.8 10.7 2 13.1
2009-09-29 07:39:50 51°18.138 2°52.564 0.1 10.2 4 -999
2009-09-29 07:39:56 51°18.155 2°52.566 1.3 10.2 4 -999
2009-09-29 07:40:01 51°18.169 2°52.566 0.6 10.3 -999 12.3
2009-09-29 07:40:05 51°18.18 2°52.566 0.5 10.4 2 12.5
2009-09-29 07:40:11 51°18.198 2°52.566 -999 10.6 -999 12.7
2009-09-29 07:40:15 51°18.21 2°52.567 0.3 10.7 2 12.6
2009-09-29 07:40:20 51°18.225 2°52.567 0.9 10.7 -999 12.5
2009-09-29 07:40:25 51°18.239 2°52.568 0.5 10.7 2 12.4
2009-09-29 07:40:30 51°18.254 2°52.567 359.8 10.7 -999 12.6
2009-09-29 07:40:35 51°18.27 2°52.567 359.9 10.8 -999 12.9
2009-09-29 07:40:40 51°18.284 2°52.568 359.4 10.9 1 12.4
2009-09-29 07:40:45 51°18.299 2°52.568 359.4 10.7 1 13
2009-09-29 07:40:49 51°18.311 2°52.568 359.9 10.8 1 12.7
2009-09-29 07:40:54 51°18.326 2°52.568 0.5 10.8 1 12.7
2009-09-29 07:41:00 51°18.344 2°52.569 0.3 10.9 2 12.9
2009-09-29 07:41:04 51°18.357 2°52.569 0.4 10.9 -999 12.8
2009-09-29 07:41:09 51°18.372 2°52.57 0.8 11 2 12.5
2009-09-29 07:41:14 51°18.387 2°52.57 0.8 10.9 1 12.4
2009-09-29 07:41:20 51°18.405 2°52.571 0.9 10.9 2 13.2
2009-09-29 07:41:25 51°18.42 2°52.571 0.8 11 1 13.1
2009-09-29 07:41:29 51°18.432 2°52.573 1 10.9 4 12.3
2009-09-29 07:41:34 51°18.447 2°52.573 1.4 10.9 -999 12.6
2009-09-29 07:41:40 51°18.465 2°52.573 359.6 10.8 1 13
2009-09-29 07:41:45 51°18.48 2°52.574 0.7 10.9 2 13
2009-09-29 07:41:50 51°18.495 2°52.573 0.3 11 359 12.7
2009-09-29 07:41:54 51°18.507 2°52.574 0.5 10.9 2 12.9
2009-09-29 07:42:00 51°18.526 2°52.574 0.6 10.9 -999 13.5
2009-09-29 07:42:05 51°18.541 2°52.575 0.8 10.9 3 12.6
2009-09-29 07:42:09 51°18.553 2°52.575 0.2 10.8 359 12.8
2009-09-29 07:42:14 51°18.567 2°52.575 0.1 10.8 2 13.4
2009-09-29 07:42:20 51°18.585 2°52.576 0.8 10.8 1 13
2009-09-29 07:42:24 51°18.598 2°52.577 0.7 10.8 1 13
2009-09-29 07:42:29 51°18.612 2°52.577 0.2 10.8 1 13.5
2009-09-29 07:42:35 51°18.631 2°52.578 0.6 10.8 1 13.5
2009-09-29 07:42:40 51°18.646 2°52.578 0.8 10.8 1 13.3
2009-09-29 07:42:44 51°18.658 2°52.578 0.7 10.8 1 12.8
2009-09-29 07:42:49 51°18.673 2°52.578 359.8 10.8 -999 13.5
2009-09-29 07:42:55 51°18.691 2°52.579 359.9 10.9 1 13.3
2009-09-29 07:43:00 51°18.706 2°52.578 359.7 10.7 -999 13.6
2009-09-29 07:43:05 51°18.72 2°52.579 359.5 10.7 1 13.3
2009-09-29 07:43:09 51°18.732 2°52.579 359.9 10.7 359 13.5
2009-09-29 07:43:14 51°18.747 2°52.58 0.1 10.9 3 13.3
2009-09-29 07:43:20 51°18.765 2°52.58 0.4 10.6 1 13.2
2009-09-29 07:43:25 51°18.78 2°52.582 1.2 10.7 3 13.9
2009-09-29 07:43:29 51°18.792 2°52.582 1.2 10.6 1 13.2
2009-09-29 07:43:34 51°18.806 2°52.583 0.1 10.4 2 13.8
2009-09-29 07:43:40 51°18.823 2°52.584 0.8 10.5 2 13.7
2009-09-29 07:43:44 51°18.835 2°52.584 1 10.5 2 13.7
2009-09-29 07:43:50 51°18.853 2°52.585 0.3 10.6 1 14.2
2009-09-29 07:43:54 51°18.864 2°52.585 0.6 10.6 2 14.2
2009-09-29 07:44:00 51°18.882 2°52.585 0.4 10.8 1 14
2009-09-29 07:44:05 51°18.897 2°52.586 359.7 10.6 1 13.9
2009-09-29 07:44:09 51°18.909 2°52.586 359.4 10.6 2 14.6
2009-09-29 07:44:15 51°18.926 2°52.587 359.6 10.4 1 13.9
2009-09-29 07:44:20 51°18.941 2°52.587 0.4 10.5 1 14.2
2009-09-29 07:44:25 51°18.956 2°52.587 359.6 10.5 -999 14.3
2009-09-29 07:44:30 51°18.97 2°52.587 359.5 10.6 -999 14.3
2009-09-29 07:44:34 51°18.982 2°52.588 0.1 10.8 1 14.2
2009-09-29 07:44:40 51°19 2°52.589 0.1 10.7 2 14
2009-09-29 07:44:44 51°19.012 2°52.589 0.4 10.7 1 14.8
2009-09-29 07:44:50 51°19.03 2°52.59 0.1 10.7 1 14.3
2009-09-29 07:44:55 51°19.045 2°52.59 0.1 10.7 1 14.7
2009-09-29 07:45:00 51°19.06 2°52.591 0.8 10.8 2 15
2009-09-29 07:45:04 51°19.072 2°52.591 0.1 10.8 1 14.6
2009-09-29 07:45:09 51°19.087 2°52.592 0.6 10.8 3 14.9
2009-09-29 07:45:15 51°19.105 2°52.593 1.4 10.9 1 15.1
2009-09-29 07:45:20 51°19.12 2°52.593 1.1 10.9 2 14.9
2009-09-29 07:45:24 51°19.132 2°52.594 0.8 11 -999 14.9
2009-09-29 07:45:29 51°19.147 2°52.594 0.4 11 1 15.2
2009-09-29 07:45:35 51°19.166 2°52.595 0.4 11 2 14.9
2009-09-29 07:45:40 51°19.181 2°52.596 0.9 11.1 1 15.5
2009-09-29 07:45:45 51°19.196 2°52.596 0.3 11.1 -999 15.3
2009-09-29 07:45:49 51°19.209 2°52.596 0.6 11.1 1 15.1
2009-09-29 07:45:54 51°19.224 2°52.596 0.3 11 1 15.4
2009-09-29 07:46:00 51°19.242 2°52.596 0.5 10.9 -999 15.7
2009-09-29 07:46:05 51°19.257 2°52.598 0.2 10.8 3 15.3
2009-09-29 07:46:09 51°19.269 2°52.598 0.8 10.8 2 16
2009-09-29 07:46:14 51°19.284 2°52.598 0.4 10.8 -999 15.6
2009-09-29 07:46:20 51°19.302 2°52.599 0.3 10.9 2 15.8
2009-09-29 07:46:25 51°19.317 2°52.599 0.4 10.8 1 16.1
2009-09-29 07:46:29 51°19.329 2°52.6 0.7 10.9 2 15.9
2009-09-29 07:46:35 51°19.347 2°52.6 0.7 10.9 1 15.8
2009-09-29 07:46:40 51°19.363 2°52.6 1.1 10.9 1 16.2
2009-09-29 07:46:45 51°19.378 2°52.6 -999 10.9 -999 15.9
2009-09-29 07:46:50 51°19.393 2°52.601 359.9 10.9 -999 15.8
2009-09-29 07:46:54 51°19.405 2°52.601 0.4 10.9 1 16.1
2009-09-29 07:47:00 51°19.423 2°52.602 0.4 10.8 -999 16.4
2009-09-29 07:47:04 51°19.435 2°52.602 0.8 11 1 16.4
2009-09-29 07:47:09 51°19.45 2°52.602 0.4 11 -999 16.4
2009-09-29 07:47:15 51°19.469 2°52.602 359.8 10.9 -999 16.8
2009-09-29 07:47:20 51°19.484 2°52.602 0.1 11 1 16.8
2009-09-29 07:47:24 51°19.496 2°52.602 0.3 11 1 16.6
2009-09-29 07:47:29 51°19.512 2°52.603 0.6 11 1 16.7
2009-09-29 07:47:35 51°19.53 2°52.602 359.9 11 -999 16.9
2009-09-29 07:47:40 51°19.545 2°52.603 359.6 10.9 2 16.6
2009-09-29 07:47:45 51°19.56 2°52.604 0.8 10.9 3 17.1
2009-09-29 07:47:49 51°19.572 2°52.605 1.7 11 1 16.7
2009-09-29 07:47:54 51°19.587 2°52.605 1.3 10.9 2 16.5
2009-09-29 07:48:00 51°19.605 2°52.607 1.4 10.9 3 17
2009-09-29 07:48:05 51°19.621 2°52.609 2.9 10.9 5 17.1
2009-09-29 07:48:09 51°19.633 2°52.609 2.7 10.9 3 16.6
2009-09-29 07:48:14 51°19.647 2°52.611 2.4 10.7 3 16.7
2009-09-29 07:48:20 51°19.665 2°52.612 2.5 10.8 3 17.3
2009-09-29 07:48:25 51°19.68 2°52.615 3.1 10.9 5 17
2009-09-29 07:48:29 51°19.692 2°52.615 3.7 10.9 2 17.3
2009-09-29 07:48:34 51°19.708 2°52.618 3.7 11 5 17
2009-09-29 07:48:40 51°19.726 2°52.62 3.5 10.8 3 17.5
2009-09-29 07:48:45 51°19.741 2°52.622 4 10.9 6 17.5
2009-09-29 07:48:49 51°19.753 2°52.624 4 10.9 5 17.2
2009-09-29 07:48:54 51°19.768 2°52.626 3.7 10.9 5 17.8
2009-09-29 07:49:00 51°19.786 2°52.628 4 11 5 17.5
2009-09-29 07:49:05 51°19.801 2°52.629 4 10.9 3 17.6
2009-09-29 07:49:09 51°19.813 2°52.631 3.3 10.9 5 16.8
2009-09-29 07:49:15 51°19.831 2°52.634 3.7 10.7 5 17.3
2009-09-29 07:49:20 51°19.846 2°52.635 4.1 10.8 3 17.2
2009-09-29 07:49:24 51°19.858 2°52.637 3.9 10.9 6 17.5
2009-09-29 07:49:29 51°19.873 2°52.639 3.7 10.7 4 17.4
2009-09-29 07:49:35 51°19.891 2°52.641 3.6 10.8 5 17.7
2009-09-29 07:49:40 51°19.906 2°52.643 3 10.7 4 17.2
2009-09-29 07:49:45 51°19.92 2°52.645 3.4 10.8 4 17.3
2009-09-29 07:49:49 51°19.932 2°52.646 3.7 10.9 4 17.9
2009-09-29 07:49:55 51°19.95 2°52.648 3.2 10.8 4 17.3
2009-09-29 07:50:00 51°19.966 2°52.651 3.1 10.9 5 17.8
2009-09-29 07:50:05 51°19.981 2°52.652 3.6 10.9 4 17.9
2009-09-29 07:50:09 51°19.993 2°52.655 3.9 11 6 17.6
2009-09-29 07:50:14 51°20.008 2°52.656 3.8 11 4 18
2009-09-29 07:50:20 51°20.027 2°52.658 3.7 11.1 5 17.6
2009-09-29 07:50:25 51°20.042 2°52.66 3.2 11.2 4 17.7
2009-09-29 07:50:29 51°20.054 2°52.662 3.7 11 5 17.1
2009-09-29 07:50:34 51°20.069 2°52.664 3.7 10.9 4 17.4
2009-09-29 07:50:40 51°20.087 2°52.666 4 11 3 17.8
2009-09-29 07:50:45 51°20.103 2°52.668 3.3 11 5 18.2
2009-09-29 07:50:50 51°20.118 2°52.67 3.7 11 4 17.7
2009-09-29 07:50:54 51°20.13 2°52.671 3.8 11 5 17.6
2009-09-29 07:51:00 51°20.148 2°52.673 3.7 11.1 3 17.8
2009-09-29 07:51:05 51°20.163 2°52.675 3.4 10.9 6 17.6
2009-09-29 07:51:09 51°20.175 2°52.676 3.7 10.9 3 17.8
2009-09-29 07:51:14 51°20.19 2°52.678 3.2 10.8 4 17.9
2009-09-29 07:51:20 51°20.209 2°52.68 3 10.9 5 18.3
2009-09-29 07:51:24 51°20.221 2°52.681 2.5 10.9 4 17.6
2009-09-29 07:51:29 51°20.236 2°52.683 2.7 10.7 4 17.7
2009-09-29 07:51:35 51°20.254 2°52.685 3 10.8 4 18.2
2009-09-29 07:51:40 51°20.268 2°52.687 2.5 10.7 5 17.4
2009-09-29 07:51:44 51°20.28 2°52.688 3.5 10.7 4 17.8
2009-09-29 07:51:49 51°20.295 2°52.69 3 10.8 3 18
2009-09-29 07:51:54 51°20.311 2°52.692 3 11 5 17.9
2009-09-29 07:52:00 51°20.329 2°52.694 3.2 11 4 17.5
2009-09-29 07:52:05 51°20.344 2°52.696 3.7 10.9 5 17.4
2009-09-29 07:52:09 51°20.356 2°52.697 3.5 10.8 4 18.3
2009-09-29 07:52:14 51°20.371 2°52.699 3.3 10.9 5 17.9
2009-09-29 07:52:20 51°20.389 2°52.702 3.8 10.8 5 18.1
2009-09-29 07:52:24 51°20.401 2°52.703 4.2 10.9 4 18.1
2009-09-29 07:52:29 51°20.416 2°52.705 3.7 10.9 4 17.5
2009-09-29 07:52:34 51°20.431 2°52.707 3.8 10.9 5 18
2009-09-29 07:52:40 51°20.45 2°52.709 3.6 10.9 4 17.5
2009-09-29 07:52:45 51°20.465 2°52.711 3.2 11 5 18.1
2009-09-29 07:52:50 51°20.48 2°52.713 2.9 10.9 3 17.8
2009-09-29 07:52:54 51°20.492 2°52.714 3.3 11 4 17.9
2009-09-29 07:53:00 51°20.511 2°52.716 3.6 11 4 17.8
2009-09-29 07:53:05 51°20.526 2°52.718 3.4 11.1 3 17.8
2009-09-29 07:53:09 51°20.538 2°52.719 3.1 11.1 4 17.6
2009-09-29 07:53:14 51°20.554 2°52.721 3.6 11.1 5 17.9
2009-09-29 07:53:20 51°20.572 2°52.724 4 11.2 4 17.9
2009-09-29 07:53:24 51°20.585 2°52.725 4 11.1 4 17.1
2009-09-29 07:53:29 51°20.6 2°52.728 4 11 5 17.7
2009-09-29 07:53:35 51°20.619 2°52.731 4.2 11.1 6 18
2009-09-29 07:53:40 51°20.633 2°52.732 3.1 10.9 3 17.2
2009-09-29 07:53:44 51°20.646 2°52.733 3 11 5 17.2
2009-09-29 07:53:50 51°20.664 2°52.735 2.5 10.8 2 17.8
2009-09-29 07:53:54 51°20.676 2°52.737 3.1 10.9 6 17.1
2009-09-29 07:54:00 51°20.694 2°52.739 2.9 10.9 3 16.9
2009-09-29 07:54:05 51°20.709 2°52.741 3.1 11 5 17.2
2009-09-29 07:54:10 51°20.724 2°52.743 3.2 11 4 16.7
2009-09-29 07:54:14 51°20.736 2°52.745 3.5 10.9 6 17.8
2009-09-29 07:54:20 51°20.754 2°52.748 4.4 10.8 6 16.8
2009-09-29 07:54:24 51°20.766 2°52.749 4.1 10.6 4 17.2
2009-09-29 07:54:29 51°20.781 2°52.751 3.4 10.7 6 16.3
2009-09-29 07:54:35 51°20.798 2°52.754 3.1 10.4 5 16.7
2009-09-29 07:54:40 51°20.812 2°52.755 3.2 10.6 4 16.7
2009-09-29 07:54:44 51°20.824 2°52.757 3.2 10.7 4 16.5
2009-09-29 07:54:49 51°20.839 2°52.759 3 10.8 5 16.4
2009-09-29 07:54:54 51°20.854 2°52.761 3 10.9 5 16.8
2009-09-29 07:55:00 51°20.872 2°52.764 3.3 10.7 6 15.9
2009-09-29 07:55:05 51°20.887 2°52.766 3.7 10.7 5 16.5
2009-09-29 07:55:09 51°20.899 2°52.767 3 10.8 6 15.6
2009-09-29 07:55:14 51°20.913 2°52.769 2.9 10.8 4 15.3
2009-09-29 07:55:20 51°20.931 2°52.772 3.1 10.9 5 15.3
2009-09-29 07:55:25 51°20.946 2°52.773 3 10.9 3 15.5
2009-09-29 07:55:29 51°20.959 2°52.775 3.2 10.9 5 16.1
2009-09-29 07:55:34 51°20.974 2°52.776 3.6 11 4 16
2009-09-29 07:55:40 51°20.992 2°52.779 3.7 10.9 5 16.6
2009-09-29 07:55:45 51°21.007 2°52.781 4 11 5 16.6
2009-09-29 07:55:50 51°21.023 2°52.783 3.7 11 5 16.5
2009-09-29 07:55:54 51°21.035 2°52.785 3.7 11 4 16.5
2009-09-29 07:56:00 51°21.053 2°52.788 4.9 11 7 17
2009-09-29 07:56:04 51°21.065 2°52.79 5.1 11 5 16.5
2009-09-29 07:56:09 51°21.08 2°52.793 5.5 11 8 17.2
2009-09-29 07:56:15 51°21.098 2°52.796 5.8 10.9 7 17.2
2009-09-29 07:56:20 51°21.113 2°52.8 6 11 7 17.3
2009-09-29 07:56:25 51°21.129 2°52.802 6.1 11 6 17.5
2009-09-29 07:56:29 51°21.141 2°52.805 6.2 11 8 17.8
2009-09-29 07:56:34 51°21.156 2°52.808 6.9 11 8 17.4
2009-09-29 07:56:40 51°21.174 2°52.812 6.9 11 8 17.9
2009-09-29 07:56:45 51°21.189 2°52.816 7 11 9 18
2009-09-29 07:56:49 51°21.201 2°52.819 7 11.1 8 18.2
2009-09-29 07:56:54 51°21.216 2°52.821 6.2 11 7 17.9
2009-09-29 07:57:00 51°21.235 2°52.826 7 11 7 18.3
2009-09-29 07:57:05 51°21.249 2°52.829 6.8 11 8 17.5
2009-09-29 07:57:09 51°21.261 2°52.832 6.7 10.8 8 17.9
2009-09-29 07:57:14 51°21.276 2°52.834 7 10.9 7 18.3
2009-09-29 07:57:20 51°21.294 2°52.839 6.8 10.9 8 18.3
2009-09-29 07:57:25 51°21.309 2°52.841 6.8 10.9 7 18.1
2009-09-29 07:57:29 51°21.321 2°52.844 6.2 10.7 7 18.1
2009-09-29 07:57:34 51°21.336 2°52.847 6.4 10.9 7 18.6
2009-09-29 07:57:40 51°21.354 2°52.85 6.7 10.8 7 18.4
2009-09-29 07:57:45 51°21.369 2°52.853 6.4 10.9 7 18.9
2009-09-29 07:57:50 51°21.384 2°52.857 6.1 10.8 8 18.1
2009-09-29 07:57:54 51°21.396 2°52.86 6.7 10.9 7 18.2
2009-09-29 07:58:00 51°21.414 2°52.863 5.9 10.9 7 18.1
2009-09-29 07:58:05 51°21.428 2°52.867 7.3 10.7 10 18.8
2009-09-29 07:58:09 51°21.44 2°52.87 7.3 10.8 9 18.6
2009-09-29 07:58:14 51°21.455 2°52.873 6.7 10.6 9 18.5
2009-09-29 07:58:20 51°21.472 2°52.877 6.7 10.7 8 18.9
2009-09-29 07:58:24 51°21.484 2°52.88 6.7 10.7 8 19.3
2009-09-29 07:58:29 51°21.499 2°52.884 7.3 10.9 8 19.1
2009-09-29 07:58:35 51°21.517 2°52.888 7 10.9 8 19
2009-09-29 07:58:40 51°21.532 2°52.891 7 11 7 19.4
2009-09-29 07:58:44 51°21.544 2°52.893 6.1 11 8 19.6
2009-09-29 07:58:49 51°21.559 2°52.897 7 11 9 19.2
2009-09-29 07:58:55 51°21.578 2°52.901 6.9 11.1 7 19.5
2009-09-29 07:59:00 51°21.592 2°52.905 7.1 11 9 19.2
2009-09-29 07:59:05 51°21.608 2°52.909 7.5 11 9 19.8
2009-09-29 07:59:09 51°21.62 2°52.912 7.3 11.1 9 20
2009-09-29 07:59:14 51°21.635 2°52.915 6.6 11.1 8 20.2
2009-09-29 07:59:20 51°21.654 2°52.92 6.7 11.2 10 20.3
2009-09-29 07:59:25 51°21.669 2°52.924 7.4 11.3 9 20.4
2009-09-29 07:59:29 51°21.682 2°52.927 7.5 11.3 9 20.5
2009-09-29 07:59:34 51°21.697 2°52.931 7.4 11.3 9 20.3
2009-09-29 07:59:40 51°21.715 2°52.936 7.5 11.1 10 20.3
2009-09-29 07:59:45 51°21.731 2°52.94 8 11.1 10 21.1
2009-09-29 07:59:50 51°21.746 2°52.945 8.1 11.1 11 20.4
2009-09-29 07:59:54 51°21.757 2°52.948 8.1 10.8 10 20.8
2009-09-29 08:00:00 51°21.775 2°52.953 7.9 10.8 9 20.9
2009-09-29 08:00:05 51°21.79 2°52.957 7.3 10.9 10 21.3
2009-09-29 08:00:09 51°21.802 2°52.96 7.3 10.9 9 21
2009-09-29 08:00:14 51°21.817 2°52.964 7.5 11 10 21.2
2009-09-29 08:00:20 51°21.835 2°52.969 7.7 11.1 9 21.4
2009-09-29 08:00:25 51°21.851 2°52.972 7.3 11.2 8 21.6
2009-09-29 08:00:30 51°21.865 2°52.976 7.1 11.1 9 21.4
2009-09-29 08:00:35 51°21.881 2°52.98 7.6 11 10 21.7
2009-09-29 08:00:40 51°21.896 2°52.983 7.3 11.1 8 22.5
2009-09-29 08:00:44 51°21.908 2°52.987 7.1 11.1 9 22.7
2009-09-29 08:00:49 51°21.923 2°52.991 7.6 11.1 10 22.7
2009-09-29 08:00:54 51°21.939 2°52.995 7.7 11.2 9 22.5
2009-09-29 08:01:00 51°21.957 2°52.999 7.6 11.3 9 22.9
2009-09-29 08:01:05 51°21.973 2°53.004 7.7 11.3 10 23
2009-09-29 08:01:09 51°21.985 2°53.006 7.6 11.3 8 23
2009-09-29 08:01:15 51°22.004 2°53.011 7.3 11.2 9 23.3
2009-09-29 08:01:20 51°22.019 2°53.015 7.7 11.3 9 23.4
2009-09-29 08:01:24 51°22.031 2°53.018 7.5 11.2 9 24
2009-09-29 08:01:29 51°22.047 2°53.022 7.3 11.2 8 23.4
2009-09-29 08:01:34 51°22.062 2°53.026 7.3 10.9 9 23.3
2009-09-29 08:01:40 51°22.079 2°53.031 8.4 11 11 24.7
2009-09-29 08:01:45 51°22.094 2°53.035 7.7 10.9 10 24.1
2009-09-29 08:01:49 51°22.106 2°53.039 7.3 10.7 10 23.8
2009-09-29 08:01:54 51°22.121 2°53.043 7.7 10.8 10 24.7
2009-09-29 08:02:00 51°22.139 2°53.047 7.9 10.9 9 24.5
2009-09-29 08:02:05 51°22.154 2°53.051 7 10.9 9 24.5
2009-09-29 08:02:09 51°22.166 2°53.054 7 11 10 24.9
2009-09-29 08:02:14 51°22.181 2°53.058 7.2 11 10 24.6
2009-09-29 08:02:20 51°22.199 2°53.063 7.4 11 9 24.9
2009-09-29 08:02:24 51°22.211 2°53.066 6.7 11.2 9 25
2009-09-29 08:02:30 51°22.23 2°53.07 6.7 11.2 8 24.5
2009-09-29 08:02:34 51°22.242 2°53.073 6.5 11.3 8 24.2
2009-09-29 08:02:40 51°22.26 2°53.077 6.6 10.9 9 24.5
2009-09-29 08:02:45 51°22.275 2°53.082 7 10.8 12 -999
2009-09-29 08:02:50 51°22.289 2°53.085 7.6 10.5 9 25
2009-09-29 08:02:55 51°22.304 2°53.089 6.9 10.7 9 25.1
2009-09-29 08:03:00 51°22.319 2°53.093 6.9 10.9 10 25.3
2009-09-29 08:03:05 51°22.333 2°53.097 7.1 10.9 9 24.6
2009-09-29 08:03:10 51°22.348 2°53.1 6.9 10.8 7 24.7
2009-09-29 08:03:15 51°22.363 2°53.104 6.5 11 9 24.7
2009-09-29 08:03:20 51°22.378 2°53.107 6.9 11 7 24.9
2009-09-29 08:03:25 51°22.394 2°53.111 6.7 11.1 9 25.2
2009-09-29 08:03:29 51°22.406 2°53.114 6.7 10.9 9 25
2009-09-29 08:03:34 51°22.421 2°53.118 7.6 11 10 25.3
2009-09-29 08:03:40 51°22.439 2°53.124 7.6 11.1 11 25
2009-09-29 08:03:45 51°22.454 2°53.127 6.9 11.2 8 24.7
2009-09-29 08:03:49 51°22.466 2°53.13 6.6 11 10 23.8
2009-09-29 08:03:54 51°22.481 2°53.134 7.3 10.8 10 24.2
2009-09-29 08:04:00 51°22.499 2°53.139 7.6 10.9 8 24.3
2009-09-29 08:04:05 51°22.513 2°53.142 6.6 10.8 9 23.8
2009-09-29 08:04:09 51°22.525 2°53.146 7.5 11 11 24.2
2009-09-29 08:04:15 51°22.544 2°53.15 7.3 11 8 24.1
2009-09-29 08:04:20 51°22.559 2°53.154 7.2 11 9 24.1
2009-09-29 08:04:25 51°22.574 2°53.158 7.1 11 8 24.1
2009-09-29 08:04:30 51°22.589 2°53.162 7.3 11.1 9 24.4
2009-09-29 08:04:34 51°22.602 2°53.165 7.3 11.2 9 24.2
2009-09-29 08:04:40 51°22.62 2°53.169 7.4 11.3 8 23.7
2009-09-29 08:04:45 51°22.635 2°53.173 7.5 11.3 9 23.4
2009-09-29 08:04:50 51°22.651 2°53.177 7.8 11.2 9 23.8
2009-09-29 08:04:54 51°22.663 2°53.18 7.1 11.2 9 24.1
2009-09-29 08:05:00 51°22.682 2°53.184 7.3 11.3 8 24.1
2009-09-29 08:05:05 51°22.697 2°53.188 7.2 11.3 10 23.5
2009-09-29 08:05:09 51°22.709 2°53.191 6.9 11.1 8 23.8
2009-09-29 08:05:15 51°22.728 2°53.195 7.1 11.2 8 23.3
2009-09-29 08:05:20 51°22.743 2°53.199 7 11 9 23.5
2009-09-29 08:05:25 51°22.758 2°53.203 7.6 11 10 24.2
2009-09-29 08:05:30 51°22.773 2°53.206 7.3 11 8 24.4
2009-09-29 08:05:34 51°22.785 2°53.209 7.4 11.1 9 24.1
2009-09-29 08:05:40 51°22.803 2°53.213 7.6 10.9 7 24.5
2009-09-29 08:05:45 51°22.819 2°53.217 6.6 10.9 8 24.6
2009-09-29 08:05:49 51°22.83 2°53.219 7.1 11 9 24.3
2009-09-29 08:05:55 51°22.849 2°53.223 6.6 11 7 23.5
2009-09-29 08:06:00 51°22.864 2°53.227 6.6 11 9 23.7
2009-09-29 08:06:05 51°22.879 2°53.23 6.7 11 8 23.3
2009-09-29 08:06:09 51°22.891 2°53.233 6.6 11.1 8 23.6
2009-09-29 08:06:14 51°22.906 2°53.237 7.2 11.1 9 23.3
2009-09-29 08:06:20 51°22.925 2°53.241 7.4 11.1 9 22.4
2009-09-29 08:06:25 51°22.94 2°53.245 7.3 11.1 8 23.5
2009-09-29 08:06:29 51°22.952 2°53.248 7.3 11.2 8 24
2009-09-29 08:06:34 51°22.968 2°53.252 7.1 11.1 9 23.4
2009-09-29 08:06:40 51°22.985 2°53.258 7.8 10.8 12 24.5
2009-09-29 08:06:45 51°23 2°53.262 8 10.8 11 24
2009-09-29 08:06:49 51°23.012 2°53.264 7.6 10.7 8 23.4
2009-09-29 08:06:55 51°23.03 2°53.27 8.1 10.9 11 23.9
2009-09-29 08:07:00 51°23.045 2°53.273 6.9 11 8 23.3
2009-09-29 08:07:05 51°23.059 2°53.278 7.6 11 11 22.6
2009-09-29 08:07:10 51°23.074 2°53.28 7.9 10.8 7 22.8
2009-09-29 08:07:14 51°23.086 2°53.283 6.7 11 8 22.7
2009-09-29 08:07:20 51°23.105 2°53.288 7.3 11.1 9 22.4
2009-09-29 08:07:25 51°23.12 2°53.291 7.2 11.1 8 22.4
2009-09-29 08:07:30 51°23.135 2°53.296 7.4 11.1 10 21.5
2009-09-29 08:07:35 51°23.151 2°53.299 7.5 11.2 8 20.6
2009-09-29 08:07:40 51°23.166 2°53.303 8.1 11.3 9 22.1
2009-09-29 08:07:44 51°23.178 2°53.307 7.8 11.2 10 21.9
2009-09-29 08:07:49 51°23.194 2°53.311 8 11.3 9 22.3
2009-09-29 08:07:55 51°23.212 2°53.315 7.4 11.3 9 21.9
2009-09-29 08:08:00 51°23.228 2°53.319 7.2 11.1 9 21.9
2009-09-29 08:08:05 51°23.243 2°53.322 7.3 11 8 22
2009-09-29 08:08:09 51°23.255 2°53.325 6.5 10.9 8 22.5
2009-09-29 08:08:15 51°23.273 2°53.329 6.7 11 8 22.3
2009-09-29 08:08:20 51°23.288 2°53.332 6.8 11 8 21.9
2009-09-29 08:08:25 51°23.304 2°53.336 6.5 11.2 9 22.1
2009-09-29 08:08:29 51°23.316 2°53.34 6.4 11 10 21.2
2009-09-29 08:08:34 51°23.331 2°53.344 7.3 11 10 21.3
2009-09-29 08:08:40 51°23.349 2°53.348 6.9 11.1 8 19.3
2009-09-29 08:08:45 51°23.364 2°53.351 7.2 11.2 9 21.7
2009-09-29 08:08:49 51°23.377 2°53.355 6.7 11.3 10 21.1
2009-09-29 08:08:54 51°23.392 2°53.359 7 11.1 10 18.7
2009-09-29 08:09:00 51°23.41 2°53.364 8.2 11 11 22.5
2009-09-29 08:09:05 51°23.425 2°53.368 7 10.9 10 22.3
2009-09-29 08:09:10 51°23.44 2°53.372 7.7 10.9 9 21.9
2009-09-29 08:09:14 51°23.452 2°53.375 8 11 9 22.2
2009-09-29 08:09:20 51°23.47 2°53.38 7.5 11.1 9 22.6
2009-09-29 08:09:24 51°23.482 2°53.383 7.3 11.2 8 22.4
2009-09-29 08:09:30 51°23.501 2°53.387 7.4 11.1 8 22.3
2009-09-29 08:09:34 51°23.513 2°53.391 7.9 11.2 9 22.4
2009-09-29 08:09:40 51°23.531 2°53.396 7.7 11.2 10 22.8
2009-09-29 08:09:44 51°23.544 2°53.398 7.2 11.2 7 22.8
2009-09-29 08:09:49 51°23.559 2°53.403 8.1 11.4 11 21.7
2009-09-29 08:09:55 51°23.578 2°53.407 6.9 11.2 7 21.5
2009-09-29 08:10:00 51°23.593 2°53.412 7.1 11.2 10 21.9
2009-09-29 08:10:05 51°23.608 2°53.415 7.5 11.2 9 21.9
2009-09-29 08:10:09 51°23.621 2°53.419 7.9 11.2 10 22.4
2009-09-29 08:10:15 51°23.639 2°53.423 7.5 11.3 9 22.5
2009-09-29 08:10:20 51°23.655 2°53.428 6.9 11.3 10 22.4
2009-09-29 08:10:25 51°23.67 2°53.432 7.2 11.3 9 22
2009-09-29 08:10:29 51°23.683 2°53.436 8.5 11.4 10 22.1
2009-09-29 08:10:35 51°23.701 2°53.44 7.6 11.2 8 22.6
2009-09-29 08:10:40 51°23.717 2°53.445 7.3 11.4 10 22.7
2009-09-29 08:10:45 51°23.732 2°53.448 7.4 11.4 9 22.2
2009-09-29 08:10:49 51°23.745 2°53.452 7.5 11.3 9 22.6
2009-09-29 08:10:54 51°23.76 2°53.456 7.5 11.3 10 22.9
2009-09-29 08:11:00 51°23.779 2°53.461 7.7 11.4 10 22.4
2009-09-29 08:11:05 51°23.794 2°53.465 7.6 11.4 9 22.3
2009-09-29 08:11:09 51°23.807 2°53.469 8 11.4 10 22.3
2009-09-29 08:11:15 51°23.826 2°53.473 7.3 11.5 8 22.7
2009-09-29 08:11:20 51°23.841 2°53.477 6.9 11.5 11 22.5
2009-09-29 08:11:25 51°23.857 2°53.481 7.2 11.4 9 22.6
2009-09-29 08:11:30 51°23.873 2°53.485 7.3 11.5 9 22.7
2009-09-29 08:11:34 51°23.886 2°53.488 7.5 11.4 9 22.2
2009-09-29 08:11:40 51°23.904 2°53.492 7.8 11.5 8 22.1
2009-09-29 08:11:45 51°23.92 2°53.496 6.6 11.4 9 22.5
2009-09-29 08:11:50 51°23.935 2°53.501 7.6 11.4 12 22.5
2009-09-29 08:11:54 51°23.948 2°53.503 7.3 11.3 6 20.9
2009-09-29 08:12:00 51°23.966 2°53.508 7.7 11.3 11 21.9
2009-09-29 08:12:04 51°23.979 2°53.51 7.9 11.3 7 22.9
2009-09-29 08:12:09 51°23.994 2°53.514 7 11.4 10 22.7
2009-09-29 08:12:15 51°24.012 2°53.519 7.3 11.3 9 22.1
2009-09-29 08:12:20 51°24.027 2°53.524 7.3 10.8 11 22.6
2009-09-29 08:12:25 51°24.042 2°53.527 7.1 10.7 9 -999
2009-09-29 08:12:30 51°24.057 2°53.532 7.7 10.7 12 23.4
2009-09-29 08:12:36 51°24.073 2°53.536 7.1 10.3 8 -999
2009-09-29 08:12:40 51°24.085 2°53.541 7.5 10.4 12 22.3
2009-09-29 08:12:45 51°24.099 2°53.544 7.5 10.5 8 20.5
2009-09-29 08:12:50 51°24.114 2°53.548 7.2 10.8 9 21.5
2009-09-29 08:12:55 51°24.129 2°53.551 6.9 10.7 8 21.5
2009-09-29 08:13:00 51°24.144 2°53.555 6.8 10.8 9 21.2
2009-09-29 08:13:05 51°24.159 2°53.558 7.1 10.9 7 20.7
2009-09-29 08:13:09 51°24.171 2°53.561 7.3 11 9 20.6
2009-09-29 08:13:14 51°24.186 2°53.564 6.9 11 8 21
2009-09-29 08:13:20 51°24.204 2°53.569 7.2 11.1 9 21.4
2009-09-29 08:13:25 51°24.22 2°53.573 7.3 11.2 8 19.2
2009-09-29 08:13:29 51°24.232 2°53.575 7.3 11.1 8 19.7
2009-09-29 08:13:34 51°24.247 2°53.579 7.4 11.1 9 19.5
2009-09-29 08:13:40 51°24.266 2°53.583 7.3 11.1 8 20.6
2009-09-29 08:13:45 51°24.281 2°53.587 7.6 11.1 9 18.6
2009-09-29 08:13:50 51°24.296 2°53.591 7.3 10.9 9 19.2
2009-09-29 08:13:55 51°24.311 2°53.596 8.2 11.1 11 19.6
2009-09-29 08:14:00 51°24.326 2°53.598 8.2 11.1 6 18.7
2009-09-29 08:14:05 51°24.341 2°53.603 8 11.1 11 18.8
2009-09-29 08:14:10 51°24.356 2°53.606 7.8 10.9 8 19.3
2009-09-29 08:14:14 51°24.368 2°53.61 7.7 11 10 18.7
2009-09-29 08:14:20 51°24.386 2°53.614 7.7 10.9 8 18.6
2009-09-29 08:14:25 51°24.401 2°53.618 7.1 10.9 9 18
2009-09-29 08:14:30 51°24.416 2°53.622 7.3 11 8 17.5
2009-09-29 08:14:35 51°24.431 2°53.626 6.8 11 9 17.9
2009-09-29 08:14:40 51°24.447 2°53.629 7.1 11 8 18.5
2009-09-29 08:14:44 51°24.459 2°53.632 6.8 11.1 8 19.3
2009-09-29 08:14:49 51°24.474 2°53.636 6.5 11.2 8 19.2
2009-09-29 08:14:55 51°24.493 2°53.64 6.6 11.1 8 19
2009-09-29 08:15:00 51°24.508 2°53.644 7.6 11.1 8 19.1
2009-09-29 08:15:05 51°24.523 2°53.648 7.5 11.2 9 19.2
2009-09-29 08:15:09 51°24.535 2°53.651 7.7 11 10 19.7
2009-09-29 08:15:15 51°24.554 2°53.655 7.9 11 9 19.5
2009-09-29 08:15:20 51°24.569 2°53.659 7.7 11 9 17.5
2009-09-29 08:15:25 51°24.584 2°53.663 7 11 8 17.8
2009-09-29 08:15:29 51°24.596 2°53.667 7.7 11.1 11 18.3
2009-09-29 08:15:34 51°24.611 2°53.67 7.6 11.1 9 17.9
2009-09-29 08:15:40 51°24.629 2°53.676 6.9 10.9 11 19.1
2009-09-29 08:15:45 51°24.644 2°53.679 7.6 11 8 19.4
2009-09-29 08:15:49 51°24.656 2°53.682 8 10.9 9 19.8
2009-09-29 08:15:54 51°24.671 2°53.686 6.9 10.9 8 20.1
2009-09-29 08:16:00 51°24.69 2°53.69 6.5 11.1 9 19.8
2009-09-29 08:16:05 51°24.705 2°53.694 7 11.1 9 19.2
2009-09-29 08:16:09 51°24.717 2°53.697 6.7 11.1 8 20
2009-09-29 08:16:15 51°24.735 2°53.702 7.7 11.2 9 18.9
2009-09-29 08:16:20 51°24.75 2°53.705 6.9 11.2 7 19.6
2009-09-29 08:16:24 51°24.763 2°53.708 6.7 11.2 8 20
2009-09-29 08:16:30 51°24.781 2°53.711 6.6 11.2 7 20.1
2009-09-29 08:16:35 51°24.797 2°53.715 5.9 11.1 9 19.8
2009-09-29 08:16:40 51°24.812 2°53.719 6.9 11.2 8 20.7
2009-09-29 08:16:45 51°24.827 2°53.723 7.1 11.2 9 19.9
2009-09-29 08:16:50 51°24.842 2°53.726 6.9 11.1 8 20.3
2009-09-29 08:16:54 51°24.855 2°53.729 7.9 11.1 10 19.9
2009-09-29 08:17:00 51°24.873 2°53.733 7.1 11.2 8 18.5
2009-09-29 08:17:05 51°24.888 2°53.737 6.7 11.1 8 19.6
2009-09-29 08:17:09 51°24.9 2°53.74 7 11.1 8 20.2
2009-09-29 08:17:15 51°24.919 2°53.745 7.2 11.1 9 21.8
2009-09-29 08:17:20 51°24.934 2°53.749 7.3 11.1 10 21.7
2009-09-29 08:17:25 51°24.949 2°53.753 7.7 11.1 10 21.8
2009-09-29 08:17:29 51°24.961 2°53.756 8.2 11.1 9 22.5
2009-09-29 08:17:34 51°24.976 2°53.761 8 11.2 12 22.7
2009-09-29 08:17:40 51°24.995 2°53.765 7.7 11.3 8 21.9
2009-09-29 08:17:45 51°25.01 2°53.77 7.7 11.2 11 22.4
2009-09-29 08:17:50 51°25.026 2°53.774 8.5 11.2 11 22.2
2009-09-29 08:17:54 51°25.038 2°53.777 8.3 11.1 8 20.7
2009-09-29 08:18:00 51°25.056 2°53.783 7.8 11.2 12 22.1
2009-09-29 08:18:05 51°25.071 2°53.786 8.3 11 8 22.3
2009-09-29 08:18:09 51°25.083 2°53.79 8.7 10.9 13 22
2009-09-29 08:18:14 51°25.097 2°53.794 8.8 10.8 8 21.8
2009-09-29 08:18:20 51°25.115 2°53.799 7.4 10.9 10 22.2
2009-09-29 08:18:25 51°25.13 2°53.803 7.2 10.9 10 22.8
2009-09-29 08:18:30 51°25.145 2°53.806 7 10.9 8 22.4
2009-09-29 08:18:35 51°25.16 2°53.81 7.3 11 10 22
2009-09-29 08:18:40 51°25.175 2°53.813 6.2 10.8 7 22.1
2009-09-29 08:18:45 51°25.19 2°53.817 7.2 10.8 10 22.2
2009-09-29 08:18:50 51°25.205 2°53.82 7.2 10.7 8 21.4
2009-09-29 08:18:55 51°25.22 2°53.823 6.6 10.9 8 22.4
2009-09-29 08:19:00 51°25.235 2°53.827 6.6 11 9 21.9
2009-09-29 08:19:05 51°25.25 2°53.83 7.1 11 8 21
2009-09-29 08:19:10 51°25.265 2°53.834 6.6 11 8 21.7
2009-09-29 08:19:15 51°25.28 2°53.838 6.2 11 8 21
2009-09-29 08:19:20 51°25.296 2°53.841 7 11 8 21.9
2009-09-29 08:19:25 51°25.311 2°53.845 7 11.1 9 21.2
2009-09-29 08:19:30 51°25.325 2°53.849 7.4 10.3 10 -999
2009-09-29 08:19:36 51°25.342 2°53.853 8.6 10.4 9 -999
2009-09-29 08:19:41 51°25.356 2°53.856 6.6 10.5 8 21.2
2009-09-29 08:19:46 51°25.371 2°53.861 7.5 10.7 11 20.6
2009-09-29 08:19:51 51°25.386 2°53.864 8.1 10.9 8 20.6
2009-09-29 08:19:56 51°25.401 2°53.869 7.7 11 10 21.2
2009-09-29 08:20:01 51°25.416 2°53.873 7.4 10.9 8 20.7
2009-09-29 08:20:05 51°25.427 2°53.876 8 10.6 10 20.8
2009-09-29 08:20:10 51°25.442 2°53.879 7.6 10.6 8 22.1
2009-09-29 08:20:15 51°25.457 2°53.882 7.1 10.6 8 21.9
2009-09-29 08:20:20 51°25.471 2°53.886 6.8 10.7 8 22.1
2009-09-29 08:20:25 51°25.486 2°53.89 6.6 10.7 11 21.4
2009-09-29 08:20:30 51°25.5 2°53.894 7.2 10.5 10 22
2009-09-29 08:20:34 51°25.512 2°53.897 7.7 10.6 9 22.2
2009-09-29 08:20:40 51°25.529 2°53.902 7.4 10.7 10 22.1
2009-09-29 08:20:45 51°25.544 2°53.906 6.9 10.8 9 22.2
2009-09-29 08:20:49 51°25.556 2°53.909 7.3 10.9 8 22.7
2009-09-29 08:20:55 51°25.574 2°53.913 6.8 10.9 9 22.3
2009-09-29 08:21:00 51°25.589 2°53.918 7.7 10.9 11 23.4
2009-09-29 08:21:05 51°25.604 2°53.921 7.5 11 8 23.2
2009-09-29 08:21:10 51°25.619 2°53.924 7.3 10.8 8 23.3
2009-09-29 08:21:15 51°25.634 2°53.927 5.3 10.9 7 23.7
2009-09-29 08:21:20 51°25.649 2°53.929 5.1 10.9 5 23.7
2009-09-29 08:21:25 51°25.664 2°53.931 4 10.9 6 24.2
2009-09-29 08:21:29 51°25.676 2°53.933 3.7 11 6 23.9
2009-09-29 08:21:34 51°25.691 2°53.935 3 10.6 5 23.7
2009-09-29 08:21:40 51°25.708 2°53.937 2.2 10.5 4 25
2009-09-29 08:21:45 51°25.723 2°53.939 2.9 10.5 4 24.3
2009-09-29 08:21:49 51°25.734 2°53.941 3.1 10.7 4 24.1
2009-09-29 08:21:55 51°25.752 2°53.943 1.5 10.5 4 24.3
2009-09-29 08:22:00 51°25.767 2°53.945 3.2 10.7 4 24.9
2009-09-29 08:22:05 51°25.782 2°53.946 2.4 10.8 2 24.7
2009-09-29 08:22:09 51°25.794 2°53.948 2.3 10.9 5 25
2009-09-29 08:22:15 51°25.812 2°53.949 1.7 11.1 3 24.2
2009-09-29 08:22:20 51°25.827 2°53.952 1.4 10.7 5 23.9
2009-09-29 08:22:25 51°25.842 2°53.953 2.3 10.7 5 24.5
2009-09-29 08:22:29 51°25.854 2°53.954 1.5 10.8 2 25.3
2009-09-29 08:22:34 51°25.869 2°53.955 1.6 10.8 3 24.9
2009-09-29 08:22:40 51°25.887 2°53.956 1.4 10.9 2 25.1
2009-09-29 08:22:45 51°25.902 2°53.957 1 10.9 1 24.6
2009-09-29 08:22:49 51°25.914 2°53.958 1.2 10.9 3 25
2009-09-29 08:22:55 51°25.932 2°53.959 0.9 11 2 24.9
2009-09-29 08:23:00 51°25.947 2°53.96 0.4 10.9 2 25.5
2009-09-29 08:23:05 51°25.962 2°53.961 1.3 11 3 25.1
2009-09-29 08:23:10 51°25.978 2°53.963 1 11 3 25.6
2009-09-29 08:23:14 51°25.99 2°53.964 0.8 11.1 3 25.2
2009-09-29 08:23:20 51°26.008 2°53.966 2.5 11.1 5 25.8
2009-09-29 08:23:25 51°26.024 2°53.967 1.6 11.1 1 26
2009-09-29 08:23:30 51°26.039 2°53.969 1.5 11.1 4 25.8
2009-09-29 08:23:35 51°26.054 2°53.969 2.3 10.9 3 26.7
2009-09-29 08:23:40 51°26.07 2°53.97 0.7 11 2 26.9
2009-09-29 08:23:44 51°26.082 2°53.972 2.2 11.1 4 27.2
2009-09-29 08:23:50 51°26.1 2°53.974 1.8 11.1 3 27.7
2009-09-29 08:23:55 51°26.116 2°53.974 2 11.2 2 28.3
2009-09-29 08:24:00 51°26.131 2°53.977 2.6 11.2 5 28.9
2009-09-29 08:24:05 51°26.147 2°53.978 1.5 11.2 3 28.9
2009-09-29 08:24:09 51°26.159 2°53.98 3 11.2 6 29.6
2009-09-29 08:24:15 51°26.178 2°53.982 2.4 11.2 3 29.8
2009-09-29 08:24:20 51°26.194 2°53.983 1.7 11.3 5 30
2009-09-29 08:24:25 51°26.209 2°53.985 2.3 11.2 4 30.3
2009-09-29 08:24:29 51°26.222 2°53.985 1.7 11.2 3 29.6
2009-09-29 08:24:34 51°26.237 2°53.987 2.4 11.1 3 29.7
2009-09-29 08:24:40 51°26.255 2°53.988 1.4 11 3 29.4
2009-09-29 08:24:45 51°26.271 2°53.99 2.3 11.2 3 29.5
2009-09-29 08:24:49 51°26.283 2°53.99 2 11.1 2 30.1